createdAt,value
2023-04-18T00:00:33.212Z,17.85
2023-04-18T00:03:22.153Z,19.00
2023-04-18T00:06:11.041Z,17.35
2023-04-18T00:08:58.710Z,18.60
2023-04-18T00:11:46.649Z,18.02
2023-04-18T00:14:35.965Z,17.73
2023-04-18T00:17:27.817Z,21.58
2023-04-18T00:20:15.732Z,19.42
2023-04-18T00:23:06.535Z,18.48
2023-04-18T00:25:54.281Z,19.95
2023-04-18T00:28:41.952Z,19.65
2023-04-18T00:31:37.257Z,21.70
2023-04-18T00:34:26.646Z,18.83
2023-04-18T00:37:14.808Z,18.17
2023-04-18T00:40:05.699Z,18.08
2023-04-18T00:42:53.295Z,19.63
2023-04-18T00:45:41.254Z,19.23
2023-04-18T00:48:30.480Z,19.35
2023-04-18T00:51:18.197Z,20.23
2023-04-18T00:54:08.606Z,23.23
2023-04-18T00:56:58.687Z,18.73
2023-04-18T00:59:48.078Z,21.63
2023-04-18T01:02:36.147Z,21.10
2023-04-18T01:05:24.795Z,21.75
2023-04-18T01:08:13.933Z,21.58
2023-04-18T01:11:06.089Z,24.42
2023-04-18T01:14:05.549Z,20.65
2023-04-18T01:16:57.937Z,21.50
2023-04-18T01:19:47.166Z,23.58
2023-04-18T01:22:37.143Z,23.77
2023-04-18T01:25:26.136Z,23.40
2023-04-18T01:28:17.478Z,26.95
2023-04-18T01:31:08.195Z,26.20
2023-04-18T01:34:00.566Z,26.73
2023-04-18T01:36:52.926Z,22.63
2023-04-18T01:39:42.685Z,23.95
2023-04-18T01:42:32.156Z,26.55
2023-04-18T01:45:25.357Z,27.35
2023-04-18T01:48:13.049Z,26.92
2023-04-18T01:51:02.304Z,25.13
2023-04-18T01:53:52.318Z,25.63
2023-04-18T01:56:40.087Z,24.77
2023-04-18T01:59:28.979Z,26.02
2023-04-18T02:02:16.685Z,25.35
2023-04-18T02:05:04.391Z,27.17
2023-04-18T02:07:51.931Z,25.33
2023-04-18T02:10:40.055Z,28.33
2023-04-18T02:13:27.572Z,25.55
2023-04-18T02:16:16.932Z,26.83
2023-04-18T02:19:06.952Z,27.65
2023-04-18T02:21:55.545Z,28.80
2023-04-18T02:24:45.204Z,27.95
2023-04-18T02:27:32.825Z,27.63
2023-04-18T02:30:22.825Z,26.40
2023-04-18T02:33:12.571Z,31.83
2023-04-18T02:36:00.103Z,25.55
2023-04-18T02:38:47.642Z,27.05
2023-04-18T02:41:40.242Z,30.60
2023-04-18T02:44:28.039Z,31.35
2023-04-18T02:47:15.950Z,31.40
2023-04-18T02:50:09.179Z,32.53
2023-04-18T02:52:59.138Z,30.60
2023-04-18T02:55:58.920Z,30.67
2023-04-18T02:58:55.576Z,32.40
2023-04-18T03:02:03.601Z,31.40
2023-04-18T03:04:51.096Z,34.08
2023-04-18T03:07:43.018Z,36.08
2023-04-18T03:10:31.339Z,31.65
2023-04-18T03:13:19.300Z,37.45
2023-04-18T03:16:07.423Z,32.35
2023-04-18T03:18:56.233Z,35.63
2023-04-18T03:21:47.272Z,40.63
2023-04-18T03:24:37.968Z,42.50
2023-04-18T03:27:29.328Z,39.72
2023-04-18T03:30:19.013Z,39.45
2023-04-18T03:33:17.832Z,38.13
2023-04-18T03:36:08.027Z,38.65
2023-04-18T03:38:58.322Z,37.88
2023-04-18T03:41:48.232Z,36.63
2023-04-18T03:44:39.760Z,41.13
2023-04-18T03:47:29.688Z,40.00
2023-04-18T03:50:21.494Z,39.55
2023-04-18T03:53:12.726Z,39.92
2023-04-18T03:56:05.799Z,37.88
2023-04-18T03:59:11.395Z,38.80
2023-04-18T04:02:02.229Z,38.70
2023-04-18T04:04:51.665Z,38.92
2023-04-18T04:07:39.371Z,40.72
2023-04-18T04:10:27.904Z,35.75
2023-04-18T04:13:18.574Z,38.00
2023-04-18T04:16:08.903Z,37.70
2023-04-18T04:18:57.961Z,39.58
2023-04-18T04:21:55.203Z,42.45
2023-04-18T04:24:43.825Z,41.50
2023-04-18T04:27:37.254Z,40.55
2023-04-18T04:30:27.487Z,34.92
2023-04-18T04:33:16.352Z,37.25
2023-04-18T04:36:04.213Z,40.65
2023-04-18T04:38:56.128Z,41.40
2023-04-18T04:41:56.858Z,40.47
2023-04-18T04:44:48.318Z,43.28
2023-04-18T04:47:37.407Z,39.28
2023-04-18T04:50:28.500Z,39.13
2023-04-18T04:53:16.218Z,40.85
2023-04-18T04:56:07.419Z,37.95
2023-04-18T04:58:56.703Z,41.45
2023-04-18T05:01:51.302Z,41.47
2023-04-18T05:04:41.229Z,41.05
2023-04-18T05:07:31.689Z,42.83
2023-04-18T05:10:19.318Z,42.45
2023-04-18T05:13:06.970Z,39.72
2023-04-18T05:15:56.072Z,41.58
2023-04-18T05:18:45.843Z,42.50
2023-04-18T05:21:36.634Z,43.88
2023-04-18T05:24:28.288Z,42.65
2023-04-18T05:27:20.687Z,36.67
2023-04-18T05:30:09.258Z,36.97
2023-04-18T05:32:56.688Z,39.50
2023-04-18T05:35:43.796Z,38.15
2023-04-18T05:38:30.718Z,37.65
2023-04-18T05:41:19.294Z,38.53
2023-04-18T05:44:06.542Z,40.47
2023-04-18T05:46:54.021Z,37.05
2023-04-18T05:49:41.246Z,38.95
2023-04-18T05:52:28.736Z,42.45
2023-04-18T05:55:16.235Z,36.05
2023-04-18T05:58:05.198Z,35.53
2023-04-18T06:00:54.198Z,36.03
2023-04-18T06:03:45.353Z,33.80
2023-04-18T06:06:34.909Z,32.38
2023-04-18T06:09:22.231Z,31.55
2023-04-18T06:12:17.030Z,33.20
2023-04-18T06:15:07.606Z,31.90
2023-04-18T06:17:58.045Z,33.13
2023-04-18T06:20:49.229Z,33.67
2023-04-18T06:23:39.630Z,33.45
2023-04-18T06:26:27.491Z,33.80
2023-04-18T06:29:19.641Z,34.78
2023-04-18T06:32:09.250Z,33.33
2023-04-18T06:34:58.900Z,33.80
2023-04-18T06:37:49.010Z,32.45
2023-04-18T06:40:39.830Z,29.95
2023-04-18T06:43:30.151Z,35.08
2023-04-18T06:46:18.314Z,27.75
2023-04-18T06:49:07.437Z,29.80
2023-04-18T06:51:55.450Z,30.30
2023-04-18T06:54:48.020Z,29.45
2023-04-18T06:57:35.646Z,27.15
2023-04-18T07:00:23.934Z,27.42
2023-04-18T07:03:14.522Z,23.98
2023-04-18T07:06:04.557Z,26.42
2023-04-18T07:09:00.298Z,28.30
2023-04-18T07:11:47.570Z,27.08
2023-04-18T07:14:35.509Z,24.30
2023-04-18T07:17:23.557Z,22.50
2023-04-18T07:20:13.791Z,24.48
2023-04-18T07:23:03.934Z,25.05
2023-04-18T07:26:00.701Z,26.92
2023-04-18T07:28:51.169Z,25.65
2023-04-18T07:31:38.690Z,24.90
2023-04-18T07:34:27.632Z,20.95
2023-04-18T07:37:17.872Z,23.65
2023-04-18T07:40:07.551Z,29.42
2023-04-18T07:42:54.842Z,21.52
2023-04-18T07:45:43.580Z,21.05
2023-04-18T07:48:32.224Z,23.15
2023-04-18T07:51:20.057Z,18.25
2023-04-18T07:54:07.421Z,19.45
2023-04-18T07:57:00.545Z,18.38
2023-04-18T07:59:48.812Z,22.77
2023-04-18T08:02:37.467Z,18.80
2023-04-18T08:05:25.437Z,20.08
2023-04-18T08:08:13.415Z,18.77
2023-04-18T08:11:00.739Z,18.58
2023-04-18T08:13:49.391Z,17.48
2023-04-18T08:16:40.950Z,18.75
2023-04-18T08:19:34.304Z,17.15
2023-04-18T08:22:24.621Z,16.70
2023-04-18T08:25:15.599Z,17.73
2023-04-18T08:28:24.155Z,17.92
2023-04-18T08:31:16.925Z,20.08
2023-04-18T08:34:07.553Z,21.90
2023-04-18T08:37:00.525Z,20.73
2023-04-18T08:39:52.682Z,19.40
2023-04-18T08:42:48.874Z,23.00
2023-04-18T08:48:37.620Z,25.38
2023-04-18T08:51:36.694Z,22.77
2023-04-18T08:54:31.737Z,22.33
2023-04-18T08:57:27.930Z,22.20
2023-04-18T09:00:24.594Z,22.83
2023-04-18T09:03:25.736Z,22.73
2023-04-18T09:06:21.724Z,23.05
2023-04-18T09:09:21.686Z,21.50
2023-04-18T09:12:21.077Z,23.75
2023-04-18T09:15:15.575Z,27.05
2023-04-18T09:18:15.420Z,22.67
2023-04-18T09:21:22.812Z,27.65
2023-04-18T09:24:21.648Z,21.52
2023-04-18T09:27:16.273Z,18.73
2023-04-18T09:30:09.148Z,20.80
2023-04-18T09:33:06.435Z,21.02
2023-04-18T09:36:18.932Z,21.17
2023-04-18T09:39:11.723Z,25.00
2023-04-18T09:42:05.494Z,21.88
2023-04-18T09:45:11.270Z,22.38
2023-04-18T09:48:04.507Z,21.98
2023-04-18T09:51:05.869Z,18.23
2023-04-18T09:53:57.510Z,17.33
2023-04-18T09:56:52.983Z,16.10
2023-04-18T09:59:49.346Z,18.08
2023-04-18T10:02:55.713Z,16.42
2023-04-18T10:05:47.500Z,19.95
2023-04-18T10:08:41.711Z,18.17
2023-04-18T10:11:34.735Z,18.52
2023-04-18T10:14:29.754Z,17.83
2023-04-18T10:17:23.190Z,18.33
2023-04-18T10:20:21.023Z,17.25
2023-04-18T10:23:52.620Z,15.70
2023-04-18T10:26:51.327Z,15.77
2023-04-18T10:30:04.061Z,21.05
2023-04-18T10:32:58.685Z,17.75
2023-04-18T10:36:05.972Z,17.17
2023-04-18T10:38:58.414Z,16.90
2023-04-18T10:42:13.574Z,16.80
2023-04-18T10:45:26.603Z,17.92
2023-04-18T10:48:29.904Z,15.80
2023-04-18T10:51:22.734Z,16.45
2023-04-18T10:54:15.646Z,18.33
2023-04-18T10:57:15.925Z,19.02
2023-04-18T11:00:15.154Z,16.85
2023-04-18T11:03:07.957Z,21.02
2023-04-18T11:06:03.405Z,18.87
2023-04-18T11:08:51.833Z,16.25
2023-04-18T11:11:40.274Z,16.27
2023-04-18T11:14:28.654Z,14.77
2023-04-18T11:17:20.795Z,14.88
2023-04-18T11:20:17.013Z,15.77
2023-04-18T11:23:18.523Z,13.57
2023-04-18T11:26:13.463Z,12.45
2023-04-18T11:29:04.330Z,14.73
2023-04-18T11:31:58.640Z,12.80
2023-04-18T11:34:56.592Z,14.82
2023-04-18T11:37:52.547Z,15.70
2023-04-18T11:43:44.737Z,15.68
2023-04-18T11:49:35.449Z,12.85
2023-04-18T11:52:32.214Z,14.13
2023-04-18T11:55:30.961Z,15.65
2023-04-18T11:58:21.358Z,13.35
2023-04-18T12:01:28.584Z,11.57
2023-04-18T12:04:24.956Z,12.98
2023-04-18T12:07:15.991Z,10.43
2023-04-18T12:10:08.138Z,11.77
2023-04-18T12:13:10.285Z,14.18
2023-04-18T12:16:06.737Z,12.07
2023-04-18T12:19:02.800Z,12.65
2023-04-18T12:22:04.446Z,16.45
2023-04-18T12:25:26.285Z,12.90
2023-04-18T12:28:31.074Z,12.40
2023-04-18T12:31:25.449Z,11.18
2023-04-18T12:37:06.694Z,11.38
2023-04-18T12:40:01.082Z,10.77
2023-04-18T12:42:51.011Z,12.07
2023-04-18T12:45:51.851Z,11.43
2023-04-18T12:48:44.934Z,11.80
2023-04-18T12:51:37.114Z,11.48
2023-04-18T12:54:29.021Z,12.68
2023-04-18T12:57:21.189Z,14.02
2023-04-18T13:00:14.138Z,11.13
2023-04-18T13:03:08.740Z,12.27
2023-04-18T13:06:06.929Z,10.40
2023-04-18T13:09:01.327Z,10.80
2023-04-18T13:11:53.972Z,10.98
2023-04-18T13:14:45.545Z,11.13
2023-04-18T13:17:42.798Z,11.48
2023-04-18T13:20:37.582Z,10.20
2023-04-18T13:23:28.651Z,11.93
2023-04-18T13:26:19.366Z,11.48
2023-04-18T13:29:11.130Z,11.07
2023-04-18T13:32:01.274Z,10.15
2023-04-18T13:34:57.717Z,10.48
2023-04-18T13:37:52.767Z,11.32
2023-04-18T13:41:04.447Z,13.77
2023-04-18T13:44:10.447Z,12.25
2023-04-18T13:47:00.964Z,10.98
2023-04-18T13:49:54.081Z,13.20
2023-04-18T13:52:46.867Z,11.13
2023-04-18T13:55:41.147Z,13.05
2023-04-18T13:58:32.969Z,10.50
2023-04-18T14:01:23.246Z,15.23
2023-04-18T14:04:15.618Z,11.57
2023-04-18T14:07:08.823Z,12.50
2023-04-18T14:10:03.246Z,11.68
2023-04-18T14:12:56.171Z,12.88
2023-04-18T14:15:49.172Z,11.20
2023-04-18T14:18:42.483Z,12.68
2023-04-18T14:21:34.470Z,11.35
2023-04-18T14:27:47.705Z,10.05
2023-04-18T14:30:41.932Z,11.93
2023-04-18T14:33:34.931Z,10.38
2023-04-18T14:36:26.138Z,9.70
2023-04-18T14:39:22.148Z,10.20
2023-04-18T14:42:13.313Z,10.65
2023-04-18T14:45:08.089Z,12.32
2023-04-18T14:48:05.210Z,9.60
2023-04-18T14:51:03.624Z,10.00
2023-04-18T14:53:56.927Z,10.05
2023-04-18T14:56:47.748Z,9.45
2023-04-18T14:59:39.530Z,10.48
2023-04-18T15:02:32.026Z,12.13
2023-04-18T15:05:27.034Z,11.60
2023-04-18T15:08:19.095Z,10.15
2023-04-18T15:11:10.446Z,12.18
2023-04-18T15:14:01.728Z,14.55
2023-04-18T15:17:06.608Z,10.98
2023-04-18T15:19:57.597Z,11.23
2023-04-18T15:22:52.046Z,11.70
2023-04-18T15:25:50.777Z,11.07
2023-04-18T15:28:40.991Z,11.88
2023-04-18T15:31:32.574Z,12.30
2023-04-18T15:34:26.135Z,10.77
2023-04-18T15:37:14.719Z,11.13
2023-04-18T15:40:09.511Z,11.88
2023-04-18T15:43:00.844Z,10.45
2023-04-18T15:45:49.111Z,12.15
2023-04-18T15:48:39.675Z,11.43
2023-04-18T15:51:36.163Z,15.63
2023-04-18T15:54:26.392Z,11.90
2023-04-18T15:57:18.951Z,13.85
2023-04-18T16:00:16.486Z,12.50
2023-04-18T16:06:00.606Z,11.38
2023-04-18T16:08:48.688Z,13.48
2023-04-18T16:11:36.465Z,9.90
2023-04-18T16:14:25.051Z,15.18
2023-04-18T16:17:12.509Z,10.25
2023-04-18T16:19:59.941Z,11.15
2023-04-18T16:22:47.779Z,12.02
2023-04-18T16:25:35.565Z,12.88
2023-04-18T16:28:37.759Z,14.35
2023-04-18T16:31:27.196Z,11.00
2023-04-18T16:34:16.780Z,12.65
2023-04-18T16:37:04.236Z,11.45
2023-04-18T16:39:52.235Z,12.50
2023-04-18T16:42:42.144Z,14.23
2023-04-18T16:45:39.017Z,11.43
2023-04-18T16:48:33.770Z,11.60
2023-04-18T16:51:24.102Z,11.90
2023-04-18T16:54:14.934Z,13.07
2023-04-18T16:57:05.944Z,11.57
2023-04-18T16:59:58.535Z,13.82
2023-04-18T17:02:52.969Z,10.90
2023-04-18T17:05:48.822Z,10.90
2023-04-18T17:08:42.517Z,10.98
2023-04-18T17:11:49.345Z,10.52
2023-04-18T17:14:43.780Z,9.65
2023-04-18T17:17:35.022Z,9.65
2023-04-18T17:20:25.890Z,9.55
2023-04-18T17:23:20.197Z,8.90
2023-04-18T17:26:11.501Z,9.77
2023-04-18T17:29:05.616Z,10.35
2023-04-18T17:31:58.519Z,10.93
2023-04-18T17:34:48.392Z,9.57
2023-04-18T17:37:40.237Z,10.93
2023-04-18T17:40:34.431Z,10.55
2023-04-18T17:43:23.270Z,10.15
2023-04-18T17:46:14.015Z,10.20
2023-04-18T17:49:06.080Z,9.85
2023-04-18T17:51:56.550Z,11.57
2023-04-18T17:54:49.150Z,11.93
2023-04-18T17:57:45.983Z,12.73
2023-04-18T18:00:46.730Z,12.27
2023-04-18T18:03:37.478Z,11.18
2023-04-18T18:06:28.870Z,15.55
2023-04-18T18:09:20.967Z,14.75
2023-04-18T18:12:14.696Z,13.88
2023-04-18T18:15:08.176Z,14.30
2023-04-18T18:18:02.697Z,15.48
2023-04-18T18:20:53.125Z,16.98
2023-04-18T18:23:47.397Z,17.15
2023-04-18T18:26:38.283Z,14.40
2023-04-18T18:29:30.629Z,15.85
2023-04-18T18:32:23.819Z,17.73
2023-04-18T18:35:15.075Z,19.40
2023-04-18T18:38:05.291Z,17.45
2023-04-18T18:40:55.870Z,16.55
2023-04-18T18:43:45.919Z,15.13
2023-04-18T18:46:41.063Z,19.70
2023-04-18T18:49:34.677Z,16.55
2023-04-18T18:52:25.741Z,19.48
2023-04-18T18:55:18.365Z,16.08
2023-04-18T18:58:11.534Z,14.73
2023-04-18T19:01:03.368Z,15.00
2023-04-18T19:03:55.929Z,15.70
2023-04-18T19:06:50.831Z,13.60
2023-04-18T19:09:40.998Z,16.65
2023-04-18T19:12:30.758Z,14.02
2023-04-18T19:15:25.623Z,14.88
2023-04-18T19:18:16.148Z,14.93
2023-04-18T19:21:08.064Z,14.25
2023-04-18T19:24:00.503Z,15.40
2023-04-18T19:26:51.225Z,17.13
2023-04-18T19:29:47.189Z,15.88
2023-04-18T19:32:38.256Z,15.73
2023-04-18T19:35:29.424Z,20.92
2023-04-18T19:38:20.325Z,15.65
2023-04-18T19:41:15.816Z,16.77
2023-04-18T19:44:06.357Z,15.75
2023-04-18T19:46:55.863Z,15.52
2023-04-18T19:49:45.729Z,16.05
2023-04-18T19:52:39.603Z,15.43
2023-04-18T19:55:31.458Z,18.88
2023-04-18T19:58:46.239Z,17.23
2023-04-18T20:01:38.032Z,14.75
2023-04-18T20:04:29.893Z,20.30
2023-04-18T20:07:24.851Z,17.30
2023-04-18T20:10:16.938Z,16.38
2023-04-18T20:13:11.289Z,15.55
2023-04-18T20:16:05.019Z,16.52
2023-04-18T20:18:56.844Z,17.05
2023-04-18T20:21:49.424Z,15.65
2023-04-18T20:24:41.457Z,15.87
2023-04-18T20:27:38.016Z,16.77
2023-04-18T20:30:32.110Z,15.52
2023-04-18T20:33:28.676Z,16.35
2023-04-18T20:36:20.258Z,17.77
2023-04-18T20:39:12.167Z,20.10
2023-04-18T20:42:15.758Z,17.83
2023-04-18T20:45:07.343Z,17.70
2023-04-18T20:47:58.109Z,17.35
2023-04-18T20:50:54.478Z,18.98
2023-04-18T20:53:46.130Z,19.40
2023-04-18T20:56:39.217Z,16.65
2023-04-18T20:59:30.553Z,22.33
2023-04-18T21:02:29.523Z,18.45
2023-04-18T21:05:21.653Z,17.30
2023-04-18T21:08:13.422Z,19.45
2023-04-18T21:11:04.474Z,19.08
2023-04-18T21:13:55.965Z,20.35
2023-04-18T21:16:47.260Z,16.30
2023-04-18T21:19:37.105Z,17.85
2023-04-18T21:22:30.770Z,20.70
2023-04-18T21:25:23.933Z,18.02
2023-04-18T21:28:14.740Z,16.40
2023-04-18T21:31:09.464Z,16.63
2023-04-18T21:34:03.039Z,16.35
2023-04-18T21:36:52.628Z,17.75
2023-04-18T21:39:45.301Z,21.48
2023-04-18T21:42:40.260Z,19.67
2023-04-18T21:45:31.501Z,19.77
2023-04-18T21:48:24.731Z,18.75
2023-04-18T21:51:17.309Z,16.08
2023-04-18T21:54:09.506Z,17.02
2023-04-18T21:57:00.358Z,17.67
2023-04-18T21:59:59.192Z,17.48
2023-04-18T22:03:03.451Z,18.20
2023-04-18T22:08:48.739Z,20.27
2023-04-18T22:11:39.036Z,17.50
2023-04-18T22:14:29.911Z,16.98
2023-04-18T22:17:23.964Z,18.00
2023-04-18T22:20:14.433Z,17.88
2023-04-18T22:23:06.493Z,16.38
2023-04-18T22:26:02.508Z,17.02
2023-04-18T22:28:53.926Z,15.80
2023-04-18T22:31:45.053Z,15.95
2023-04-18T22:34:36.338Z,15.25
2023-04-18T22:37:31.050Z,14.60
2023-04-18T22:40:21.821Z,15.77
2023-04-18T22:43:16.251Z,15.52
2023-04-18T22:46:07.146Z,15.55
2023-04-18T22:48:59.103Z,15.27
2023-04-18T22:51:55.537Z,14.50
2023-04-18T22:54:46.290Z,18.52
2023-04-18T22:57:38.957Z,16.60
2023-04-18T23:00:29.992Z,15.55
2023-04-18T23:03:21.840Z,15.48
2023-04-18T23:06:17.811Z,14.60
2023-04-18T23:09:10.283Z,14.95
2023-04-18T23:11:59.931Z,14.35
2023-04-18T23:14:51.830Z,15.02
2023-04-18T23:17:44.834Z,16.20
2023-04-18T23:20:35.471Z,15.20
2023-04-18T23:23:27.226Z,15.15
2023-04-18T23:26:28.004Z,16.10
2023-04-18T23:29:18.850Z,14.38
2023-04-18T23:32:11.971Z,17.30
2023-04-18T23:35:09.867Z,17.85
2023-04-18T23:38:03.425Z,15.68
2023-04-18T23:41:01.084Z,14.20
2023-04-18T23:43:53.774Z,18.70
2023-04-18T23:46:51.918Z,17.58
2023-04-18T23:49:48.643Z,17.35
2023-04-18T23:52:39.355Z,16.63
2023-04-18T23:55:30.761Z,15.98
2023-04-18T23:58:22.120Z,20.75
